sensor_id;sensor_type;location;lat;lon;timestamp;P1;durP1;ratioP1;P2;durP2;ratioP2
76752;SDS011;65687;51.308;16.916;2023-06-05T00:02:59;2.80;;;1.90;;
76752;SDS011;65687;51.308;16.916;2023-06-05T00:08:01;2.90;;;1.80;;
76752;SDS011;65687;51.308;16.916;2023-06-05T00:13:02;4.20;;;2.00;;
76752;SDS011;65687;51.308;16.916;2023-06-05T00:18:04;3.20;;;1.80;;
76752;SDS011;65687;51.308;16.916;2023-06-05T00:28:07;3.60;;;2.00;;
76752;SDS011;65687;51.308;16.916;2023-06-05T00:33:09;1.90;;;1.50;;
76752;SDS011;65687;51.308;16.916;2023-06-05T00:38:10;5.10;;;1.80;;
76752;SDS011;65687;51.308;16.916;2023-06-05T00:43:12;3.60;;;1.90;;
76752;SDS011;65687;51.308;16.916;2023-06-05T00:48:13;2.60;;;1.60;;
76752;SDS011;65687;51.308;16.916;2023-06-05T00:53:15;3.00;;;1.60;;
76752;SDS011;65687;51.308;16.916;2023-06-05T00:58:17;2.70;;;1.60;;
76752;SDS011;65687;51.308;16.916;2023-06-05T01:03:19;3.50;;;1.70;;
76752;SDS011;65687;51.308;16.916;2023-06-05T01:08:24;3.70;;;2.00;;
76752;SDS011;65687;51.308;16.916;2023-06-05T01:18:31;4.40;;;1.90;;
76752;SDS011;65687;51.308;16.916;2023-06-05T01:23:35;3.60;;;1.80;;
76752;SDS011;65687;51.308;16.916;2023-06-05T01:28:37;2.10;;;1.60;;
76752;SDS011;65687;51.308;16.916;2023-06-05T01:33:44;2.60;;;1.70;;
76752;SDS011;65687;51.308;16.916;2023-06-05T01:38:51;2.50;;;1.70;;
76752;SDS011;65687;51.308;16.916;2023-06-05T01:43:58;3.70;;;1.60;;
76752;SDS011;65687;51.308;16.916;2023-06-05T01:49:01;2.30;;;1.50;;
76752;SDS011;65687;51.308;16.916;2023-06-05T01:54:03;3.30;;;1.70;;
76752;SDS011;65687;51.308;16.916;2023-06-05T01:59:06;3.90;;;1.70;;
76752;SDS011;65687;51.308;16.916;2023-06-05T02:04:08;4.80;;;2.90;;
76752;SDS011;65687;51.308;16.916;2023-06-05T02:09:10;3.00;;;2.00;;
76752;SDS011;65687;51.308;16.916;2023-06-05T02:14:14;3.90;;;2.00;;
76752;SDS011;65687;51.308;16.916;2023-06-05T02:19:16;3.00;;;1.90;;
76752;SDS011;65687;51.308;16.916;2023-06-05T02:24:20;2.80;;;1.80;;
76752;SDS011;65687;51.308;16.916;2023-06-05T02:29:21;3.10;;;2.30;;
76752;SDS011;65687;51.308;16.916;2023-06-05T02:34:23;3.80;;;2.20;;
76752;SDS011;65687;51.308;16.916;2023-06-05T02:39:26;3.70;;;2.40;;
76752;SDS011;65687;51.308;16.916;2023-06-05T02:44:27;3.10;;;2.00;;
76752;SDS011;65687;51.308;16.916;2023-06-05T02:49:29;6.00;;;1.90;;
76752;SDS011;65687;51.308;16.916;2023-06-05T02:54:31;3.50;;;2.20;;
76752;SDS011;65687;51.308;16.916;2023-06-05T02:59:32;3.90;;;2.30;;
76752;SDS011;65687;51.308;16.916;2023-06-05T03:04:34;6.00;;;2.40;;
76752;SDS011;65687;51.308;16.916;2023-06-05T03:09:35;6.20;;;2.20;;
76752;SDS011;65687;51.308;16.916;2023-06-05T03:14:38;3.40;;;2.20;;
76752;SDS011;65687;51.308;16.916;2023-06-05T03:19:40;4.10;;;2.10;;
76752;SDS011;65687;51.308;16.916;2023-06-05T03:29:44;3.00;;;2.10;;
76752;SDS011;65687;51.308;16.916;2023-06-05T03:34:46;2.90;;;1.90;;
76752;SDS011;65687;51.308;16.916;2023-06-05T03:39:49;3.30;;;2.10;;
76752;SDS011;65687;51.308;16.916;2023-06-05T03:44:51;4.70;;;2.20;;
76752;SDS011;65687;51.308;16.916;2023-06-05T03:49:53;3.70;;;2.10;;
76752;SDS011;65687;51.308;16.916;2023-06-05T03:54:56;3.40;;;1.90;;
76752;SDS011;65687;51.308;16.916;2023-06-05T03:59:57;2.90;;;2.10;;
76752;SDS011;65687;51.308;16.916;2023-06-05T04:04:59;3.40;;;2.20;;
76752;SDS011;65687;51.308;16.916;2023-06-05T04:10:02;2.90;;;1.90;;
76752;SDS011;65687;51.308;16.916;2023-06-05T04:15:04;3.90;;;2.00;;
76752;SDS011;65687;51.308;16.916;2023-06-05T04:20:06;3.20;;;1.90;;
76752;SDS011;65687;51.308;16.916;2023-06-05T04:25:15;2.60;;;1.70;;
76752;SDS011;65687;51.308;16.916;2023-06-05T04:30:16;3.20;;;2.20;;
76752;SDS011;65687;51.308;16.916;2023-06-05T04:35:19;4.60;;;2.10;;
76752;SDS011;65687;51.308;16.916;2023-06-05T04:45:22;2.50;;;1.80;;
76752;SDS011;65687;51.308;16.916;2023-06-05T04:50:26;3.20;;;1.90;;
76752;SDS011;65687;51.308;16.916;2023-06-05T04:55:28;4.70;;;2.30;;
76752;SDS011;65687;51.308;16.916;2023-06-05T05:00:30;3.10;;;2.20;;
76752;SDS011;65687;51.308;16.916;2023-06-05T05:05:31;3.10;;;1.90;;
76752;SDS011;65687;51.308;16.916;2023-06-05T05:10:33;4.30;;;2.10;;
76752;SDS011;65687;51.308;16.916;2023-06-05T05:15:35;2.40;;;1.80;;
76752;SDS011;65687;51.308;16.916;2023-06-05T05:20:36;3.80;;;2.40;;
76752;SDS011;65687;51.308;16.916;2023-06-05T05:25:39;4.20;;;1.90;;
76752;SDS011;65687;51.308;16.916;2023-06-05T05:30:41;5.00;;;2.40;;
76752;SDS011;65687;51.308;16.916;2023-06-05T05:35:43;4.70;;;2.10;;
76752;SDS011;65687;51.308;16.916;2023-06-05T05:40:45;3.10;;;2.10;;
76752;SDS011;65687;51.308;16.916;2023-06-05T05:45:47;3.60;;;2.10;;
76752;SDS011;65687;51.308;16.916;2023-06-05T05:50:49;3.40;;;2.00;;
76752;SDS011;65687;51.308;16.916;2023-06-05T05:55:51;2.90;;;2.00;;
76752;SDS011;65687;51.308;16.916;2023-06-05T06:00:52;4.40;;;2.40;;
76752;SDS011;65687;51.308;16.916;2023-06-05T06:05:54;4.30;;;2.00;;
76752;SDS011;65687;51.308;16.916;2023-06-05T06:10:58;4.10;;;2.40;;
76752;SDS011;65687;51.308;16.916;2023-06-05T06:16:00;3.10;;;2.10;;
76752;SDS011;65687;51.308;16.916;2023-06-05T06:21:03;4.60;;;2.20;;
76752;SDS011;65687;51.308;16.916;2023-06-05T06:26:05;3.20;;;2.20;;
76752;SDS011;65687;51.308;16.916;2023-06-05T06:31:08;4.00;;;2.50;;
76752;SDS011;65687;51.308;16.916;2023-06-05T06:36:09;4.50;;;2.20;;
76752;SDS011;65687;51.308;16.916;2023-06-05T06:41:12;5.30;;;2.10;;
76752;SDS011;65687;51.308;16.916;2023-06-05T06:46:13;3.00;;;2.10;;
76752;SDS011;65687;51.308;16.916;2023-06-05T06:51:15;5.40;;;2.20;;
76752;SDS011;65687;51.308;16.916;2023-06-05T06:56:17;4.00;;;2.20;;
76752;SDS011;65687;51.308;16.916;2023-06-05T07:06:21;4.30;;;2.00;;
76752;SDS011;65687;51.308;16.916;2023-06-05T07:11:24;3.90;;;2.20;;
76752;SDS011;65687;51.308;16.916;2023-06-05T07:16:27;3.20;;;2.10;;
76752;SDS011;65687;51.308;16.916;2023-06-05T07:21:29;2.80;;;1.80;;
76752;SDS011;65687;51.308;16.916;2023-06-05T07:26:30;5.10;;;2.10;;
76752;SDS011;65687;51.308;16.916;2023-06-05T07:31:33;3.80;;;2.10;;
76752;SDS011;65687;51.308;16.916;2023-06-05T07:36:35;4.30;;;2.10;;
76752;SDS011;65687;51.308;16.916;2023-06-05T07:41:38;4.30;;;2.20;;
76752;SDS011;65687;51.308;16.916;2023-06-05T07:46:41;2.90;;;1.90;;
76752;SDS011;65687;51.308;16.916;2023-06-05T07:51:44;3.60;;;2.30;;
76752;SDS011;65687;51.308;16.916;2023-06-05T07:56:48;4.80;;;1.80;;
76752;SDS011;65687;51.308;16.916;2023-06-05T08:01:52;4.50;;;1.80;;
76752;SDS011;65687;51.308;16.916;2023-06-05T08:06:55;3.10;;;1.80;;
76752;SDS011;65687;51.308;16.916;2023-06-05T08:11:57;3.70;;;1.90;;
76752;SDS011;65687;51.308;16.916;2023-06-05T08:16:58;4.20;;;2.00;;
76752;SDS011;65687;51.308;16.916;2023-06-05T08:22:16;4.90;;;1.60;;
76752;SDS011;65687;51.308;16.916;2023-06-05T08:27:17;3.30;;;1.70;;
76752;SDS011;65687;51.308;16.916;2023-06-05T08:42:24;2.70;;;1.70;;
76752;SDS011;65687;51.308;16.916;2023-06-05T08:47:29;3.90;;;1.70;;
76752;SDS011;65687;51.308;16.916;2023-06-05T08:52:33;2.90;;;1.60;;
76752;SDS011;65687;51.308;16.916;2023-06-05T08:57:38;3.70;;;1.70;;
76752;SDS011;65687;51.308;16.916;2023-06-05T09:02:42;3.50;;;1.70;;
76752;SDS011;65687;51.308;16.916;2023-06-05T09:07:50;2.30;;;1.50;;
76752;SDS011;65687;51.308;16.916;2023-06-05T09:12:58;3.80;;;1.80;;
76752;SDS011;65687;51.308;16.916;2023-06-05T09:28:28;2.70;;;1.70;;
76752;SDS011;65687;51.308;16.916;2023-06-05T09:33:30;2.80;;;1.50;;
76752;SDS011;65687;51.308;16.916;2023-06-05T09:38:36;3.50;;;1.90;;
76752;SDS011;65687;51.308;16.916;2023-06-05T09:43:39;3.00;;;2.00;;
76752;SDS011;65687;51.308;16.916;2023-06-05T09:48:40;4.50;;;1.80;;
76752;SDS011;65687;51.308;16.916;2023-06-05T09:53:45;5.20;;;1.60;;
76752;SDS011;65687;51.308;16.916;2023-06-05T09:58:51;4.30;;;2.00;;
76752;SDS011;65687;51.308;16.916;2023-06-05T10:03:57;3.30;;;1.80;;
76752;SDS011;65687;51.308;16.916;2023-06-05T10:09:00;2.50;;;1.70;;
76752;SDS011;65687;51.308;16.916;2023-06-05T10:14:02;3.10;;;1.70;;
76752;SDS011;65687;51.308;16.916;2023-06-05T10:19:04;2.90;;;1.70;;
76752;SDS011;65687;51.308;16.916;2023-06-05T10:24:11;3.30;;;1.50;;
76752;SDS011;65687;51.308;16.916;2023-06-05T10:40:16;2.80;;;1.90;;
76752;SDS011;65687;51.308;16.916;2023-06-05T10:45:31;4.30;;;1.60;;
76752;SDS011;65687;51.308;16.916;2023-06-05T10:50:35;4.60;;;1.90;;
76752;SDS011;65687;51.308;16.916;2023-06-05T10:55:41;2.80;;;1.80;;
76752;SDS011;65687;51.308;16.916;2023-06-05T11:06:20;3.90;;;2.00;;
76752;SDS011;65687;51.308;16.916;2023-06-05T11:11:22;3.50;;;2.00;;
76752;SDS011;65687;51.308;16.916;2023-06-05T11:32:43;3.10;;;2.00;;
76752;SDS011;65687;51.308;16.916;2023-06-05T11:37:45;2.70;;;1.90;;
76752;SDS011;65687;51.308;16.916;2023-06-05T11:42:46;2.90;;;2.20;;
76752;SDS011;65687;51.308;16.916;2023-06-05T11:52:49;3.10;;;1.70;;
76752;SDS011;65687;51.308;16.916;2023-06-05T12:02:52;3.80;;;2.10;;
76752;SDS011;65687;51.308;16.916;2023-06-05T12:07:54;2.60;;;1.90;;
76752;SDS011;65687;51.308;16.916;2023-06-05T12:12:57;4.50;;;2.10;;
76752;SDS011;65687;51.308;16.916;2023-06-05T12:23:01;3.50;;;1.90;;
76752;SDS011;65687;51.308;16.916;2023-06-05T12:28:04;3.40;;;1.80;;
76752;SDS011;65687;51.308;16.916;2023-06-05T12:33:21;3.10;;;1.90;;
76752;SDS011;65687;51.308;16.916;2023-06-05T12:38:25;2.40;;;1.50;;
76752;SDS011;65687;51.308;16.916;2023-06-05T12:43:27;2.50;;;1.80;;
76752;SDS011;65687;51.308;16.916;2023-06-05T12:48:28;2.30;;;1.50;;
76752;SDS011;65687;51.308;16.916;2023-06-05T12:53:30;2.70;;;1.70;;
76752;SDS011;65687;51.308;16.916;2023-06-05T12:58:32;3.70;;;2.00;;
76752;SDS011;65687;51.308;16.916;2023-06-05T13:03:33;3.20;;;1.90;;
76752;SDS011;65687;51.308;16.916;2023-06-05T13:08:35;3.20;;;1.80;;
76752;SDS011;65687;51.308;16.916;2023-06-05T13:13:37;4.50;;;1.70;;
76752;SDS011;65687;51.308;16.916;2023-06-05T13:18:38;3.60;;;2.10;;
76752;SDS011;65687;51.308;16.916;2023-06-05T13:23:40;3.20;;;2.00;;
76752;SDS011;65687;51.308;16.916;2023-06-05T13:33:45;3.60;;;2.10;;
76752;SDS011;65687;51.308;16.916;2023-06-05T13:43:48;3.60;;;1.60;;
76752;SDS011;65687;51.308;16.916;2023-06-05T13:48:50;3.40;;;1.80;;
76752;SDS011;65687;51.308;16.916;2023-06-05T13:58:54;2.30;;;1.60;;
76752;SDS011;65687;51.308;16.916;2023-06-05T14:03:58;3.60;;;1.90;;
76752;SDS011;65687;51.308;16.916;2023-06-05T14:08:59;2.80;;;1.90;;
76752;SDS011;65687;51.308;16.916;2023-06-05T14:14:01;4.60;;;2.10;;
76752;SDS011;65687;51.308;16.916;2023-06-05T14:19:03;4.40;;;1.90;;
76752;SDS011;65687;51.308;16.916;2023-06-05T14:24:05;2.90;;;1.90;;
76752;SDS011;65687;51.308;16.916;2023-06-05T14:29:06;3.20;;;2.00;;
76752;SDS011;65687;51.308;16.916;2023-06-05T14:34:08;5.10;;;2.10;;
76752;SDS011;65687;51.308;16.916;2023-06-05T14:39:10;5.10;;;2.10;;
76752;SDS011;65687;51.308;16.916;2023-06-05T14:44:13;3.40;;;1.90;;
76752;SDS011;65687;51.308;16.916;2023-06-05T14:49:14;4.10;;;2.00;;
76752;SDS011;65687;51.308;16.916;2023-06-05T14:54:16;3.50;;;2.00;;
76752;SDS011;65687;51.308;16.916;2023-06-05T14:59:17;3.80;;;2.10;;
76752;SDS011;65687;51.308;16.916;2023-06-05T15:04:19;3.20;;;2.00;;
76752;SDS011;65687;51.308;16.916;2023-06-05T15:09:21;2.80;;;1.80;;
76752;SDS011;65687;51.308;16.916;2023-06-05T15:14:23;4.00;;;2.20;;
76752;SDS011;65687;51.308;16.916;2023-06-05T15:19:25;3.40;;;2.30;;
76752;SDS011;65687;51.308;16.916;2023-06-05T15:24:27;3.00;;;2.00;;
76752;SDS011;65687;51.308;16.916;2023-06-05T15:29:29;2.80;;;2.00;;
76752;SDS011;65687;51.308;16.916;2023-06-05T15:34:30;3.20;;;2.00;;
76752;SDS011;65687;51.308;16.916;2023-06-05T15:39:32;3.70;;;1.90;;
76752;SDS011;65687;51.308;16.916;2023-06-05T15:44:37;3.00;;;2.10;;
76752;SDS011;65687;51.308;16.916;2023-06-05T15:49:40;3.00;;;2.00;;
76752;SDS011;65687;51.308;16.916;2023-06-05T15:54:41;3.30;;;2.10;;
76752;SDS011;65687;51.308;16.916;2023-06-05T16:04:46;2.80;;;2.00;;
76752;SDS011;65687;51.308;16.916;2023-06-05T16:09:49;4.20;;;2.10;;
76752;SDS011;65687;51.308;16.916;2023-06-05T16:14:52;3.20;;;2.10;;
76752;SDS011;65687;51.308;16.916;2023-06-05T16:19:55;3.80;;;1.90;;
76752;SDS011;65687;51.308;16.916;2023-06-05T16:24:57;3.50;;;2.20;;
76752;SDS011;65687;51.308;16.916;2023-06-05T16:29:59;3.30;;;2.00;;
76752;SDS011;65687;51.308;16.916;2023-06-05T16:35:01;3.60;;;2.00;;
76752;SDS011;65687;51.308;16.916;2023-06-05T16:40:03;3.90;;;2.20;;
76752;SDS011;65687;51.308;16.916;2023-06-05T16:45:05;3.30;;;1.80;;
76752;SDS011;65687;51.308;16.916;2023-06-05T16:50:07;3.10;;;2.10;;
76752;SDS011;65687;51.308;16.916;2023-06-05T16:55:09;2.60;;;1.70;;
76752;SDS011;65687;51.308;16.916;2023-06-05T17:00:11;2.80;;;1.90;;
76752;SDS011;65687;51.308;16.916;2023-06-05T17:05:13;4.00;;;2.10;;
76752;SDS011;65687;51.308;16.916;2023-06-05T17:10:15;4.30;;;2.10;;
76752;SDS011;65687;51.308;16.916;2023-06-05T17:15:17;2.40;;;1.90;;
76752;SDS011;65687;51.308;16.916;2023-06-05T17:20:19;3.70;;;1.80;;
76752;SDS011;65687;51.308;16.916;2023-06-05T17:25:21;3.00;;;2.00;;
76752;SDS011;65687;51.308;16.916;2023-06-05T17:30:22;3.90;;;2.10;;
76752;SDS011;65687;51.308;16.916;2023-06-05T17:35:24;3.00;;;1.90;;
76752;SDS011;65687;51.308;16.916;2023-06-05T17:40:26;2.80;;;1.80;;
76752;SDS011;65687;51.308;16.916;2023-06-05T17:45:28;3.00;;;1.90;;
76752;SDS011;65687;51.308;16.916;2023-06-05T17:50:32;3.30;;;2.00;;
76752;SDS011;65687;51.308;16.916;2023-06-05T18:00:36;2.90;;;2.00;;
76752;SDS011;65687;51.308;16.916;2023-06-05T18:05:39;3.70;;;2.00;;
76752;SDS011;65687;51.308;16.916;2023-06-05T18:15:42;3.70;;;1.90;;
76752;SDS011;65687;51.308;16.916;2023-06-05T18:20:44;3.00;;;2.30;;
76752;SDS011;65687;51.308;16.916;2023-06-05T18:25:46;3.30;;;2.20;;
76752;SDS011;65687;51.308;16.916;2023-06-05T18:30:48;3.90;;;2.40;;
76752;SDS011;65687;51.308;16.916;2023-06-05T18:35:49;3.70;;;2.10;;
76752;SDS011;65687;51.308;16.916;2023-06-05T18:40:52;2.60;;;2.20;;
76752;SDS011;65687;51.308;16.916;2023-06-05T18:45:55;3.80;;;2.50;;
76752;SDS011;65687;51.308;16.916;2023-06-05T18:50:57;2.90;;;2.40;;
76752;SDS011;65687;51.308;16.916;2023-06-05T18:56:05;5.90;;;2.50;;
76752;SDS011;65687;51.308;16.916;2023-06-05T19:01:08;5.20;;;2.40;;
76752;SDS011;65687;51.308;16.916;2023-06-05T19:06:10;3.20;;;2.20;;
76752;SDS011;65687;51.308;16.916;2023-06-05T19:11:14;3.50;;;2.40;;
76752;SDS011;65687;51.308;16.916;2023-06-05T19:16:16;3.80;;;2.30;;
76752;SDS011;65687;51.308;16.916;2023-06-05T19:21:19;5.20;;;2.40;;
76752;SDS011;65687;51.308;16.916;2023-06-05T19:26:21;3.70;;;2.20;;
76752;SDS011;65687;51.308;16.916;2023-06-05T19:31:23;5.80;;;2.50;;
76752;SDS011;65687;51.308;16.916;2023-06-05T19:36:25;4.10;;;2.30;;
76752;SDS011;65687;51.308;16.916;2023-06-05T19:41:27;7.10;;;2.50;;
76752;SDS011;65687;51.308;16.916;2023-06-05T19:46:34;5.10;;;2.50;;
76752;SDS011;65687;51.308;16.916;2023-06-05T19:51:36;4.60;;;2.60;;
76752;SDS011;65687;51.308;16.916;2023-06-05T19:56:43;4.10;;;2.60;;
76752;SDS011;65687;51.308;16.916;2023-06-05T20:01:45;4.10;;;2.50;;
76752;SDS011;65687;51.308;16.916;2023-06-05T20:06:49;3.30;;;2.20;;
76752;SDS011;65687;51.308;16.916;2023-06-05T20:11:51;5.70;;;2.30;;
76752;SDS011;65687;51.308;16.916;2023-06-05T20:21:54;7.50;;;2.60;;
76752;SDS011;65687;51.308;16.916;2023-06-05T20:31:57;3.60;;;2.80;;
76752;SDS011;65687;51.308;16.916;2023-06-05T20:37:00;3.60;;;2.70;;
76752;SDS011;65687;51.308;16.916;2023-06-05T20:42:02;3.90;;;2.50;;
76752;SDS011;65687;51.308;16.916;2023-06-05T20:47:06;3.60;;;2.40;;
76752;SDS011;65687;51.308;16.916;2023-06-05T20:52:09;4.20;;;2.30;;
76752;SDS011;65687;51.308;16.916;2023-06-05T20:57:13;9.10;;;4.00;;
76752;SDS011;65687;51.308;16.916;2023-06-05T21:02:16;6.00;;;3.20;;
76752;SDS011;65687;51.308;16.916;2023-06-05T21:07:18;6.50;;;3.30;;
76752;SDS011;65687;51.308;16.916;2023-06-05T21:12:20;5.10;;;3.20;;
76752;SDS011;65687;51.308;16.916;2023-06-05T21:17:21;5.10;;;3.00;;
76752;SDS011;65687;51.308;16.916;2023-06-05T21:22:23;3.80;;;2.50;;
76752;SDS011;65687;51.308;16.916;2023-06-05T21:27:25;4.60;;;3.10;;
76752;SDS011;65687;51.308;16.916;2023-06-05T21:32:27;3.90;;;2.80;;
76752;SDS011;65687;51.308;16.916;2023-06-05T21:37:29;4.70;;;3.40;;
76752;SDS011;65687;51.308;16.916;2023-06-05T21:42:30;4.70;;;3.00;;
76752;SDS011;65687;51.308;16.916;2023-06-05T21:47:32;3.90;;;2.90;;
76752;SDS011;65687;51.308;16.916;2023-06-05T21:52:33;4.40;;;3.20;;
76752;SDS011;65687;51.308;16.916;2023-06-05T21:57:35;5.50;;;3.30;;
76752;SDS011;65687;51.308;16.916;2023-06-05T22:02:37;6.50;;;3.10;;
76752;SDS011;65687;51.308;16.916;2023-06-05T22:07:38;6.60;;;3.00;;
76752;SDS011;65687;51.308;16.916;2023-06-05T22:12:41;5.00;;;3.40;;
76752;SDS011;65687;51.308;16.916;2023-06-05T22:17:45;6.30;;;3.50;;
76752;SDS011;65687;51.308;16.916;2023-06-05T22:22:52;5.60;;;3.60;;
76752;SDS011;65687;51.308;16.916;2023-06-05T22:27:54;4.80;;;3.30;;
76752;SDS011;65687;51.308;16.916;2023-06-05T22:37:57;5.40;;;3.30;;
76752;SDS011;65687;51.308;16.916;2023-06-05T22:42:59;5.60;;;4.10;;
76752;SDS011;65687;51.308;16.916;2023-06-05T22:48:00;5.80;;;3.70;;
76752;SDS011;65687;51.308;16.916;2023-06-05T22:53:02;5.70;;;3.60;;
76752;SDS011;65687;51.308;16.916;2023-06-05T22:58:04;6.50;;;3.70;;
76752;SDS011;65687;51.308;16.916;2023-06-05T23:03:06;4.90;;;3.90;;
76752;SDS011;65687;51.308;16.916;2023-06-05T23:08:08;5.40;;;3.70;;
76752;SDS011;65687;51.308;16.916;2023-06-05T23:13:11;5.90;;;3.90;;
76752;SDS011;65687;51.308;16.916;2023-06-05T23:18:13;5.90;;;3.90;;
76752;SDS011;65687;51.308;16.916;2023-06-05T23:23:15;6.00;;;4.00;;
76752;SDS011;65687;51.308;16.916;2023-06-05T23:28:17;7.10;;;5.20;;
76752;SDS011;65687;51.308;16.916;2023-06-05T23:33:19;6.50;;;4.30;;
76752;SDS011;65687;51.308;16.916;2023-06-05T23:38:21;7.00;;;4.50;;
76752;SDS011;65687;51.308;16.916;2023-06-05T23:43:23;5.80;;;4.00;;
76752;SDS011;65687;51.308;16.916;2023-06-05T23:48:24;6.80;;;4.30;;
76752;SDS011;65687;51.308;16.916;2023-06-05T23:53:26;6.60;;;4.40;;
76752;SDS011;65687;51.308;16.916;2023-06-05T23:58:28;7.80;;;4.20;;
